sensor_id;sensor_type;location;lat;lon;timestamp;P1;durP1;ratioP1;P2;durP2;ratioP2
54430;SDS011;40342;52.998;5.862;2024-03-17T00:01:49;3.13;;;2.13;;
54430;SDS011;40342;52.998;5.862;2024-03-17T00:04:15;4.18;;;2.30;;
54430;SDS011;40342;52.998;5.862;2024-03-17T00:06:41;2.55;;;2.10;;
54430;SDS011;40342;52.998;5.862;2024-03-17T00:09:06;5.55;;;2.67;;
54430;SDS011;40342;52.998;5.862;2024-03-17T00:11:34;5.78;;;2.03;;
54430;SDS011;40342;52.998;5.862;2024-03-17T00:14:02;3.75;;;2.03;;
54430;SDS011;40342;52.998;5.862;2024-03-17T00:16:28;4.60;;;2.58;;
54430;SDS011;40342;52.998;5.862;2024-03-17T00:18:54;3.65;;;2.17;;
54430;SDS011;40342;52.998;5.862;2024-03-17T00:21:20;4.38;;;2.40;;
54430;SDS011;40342;52.998;5.862;2024-03-17T00:23:49;6.25;;;2.47;;
54430;SDS011;40342;52.998;5.862;2024-03-17T00:26:15;3.25;;;2.08;;
54430;SDS011;40342;52.998;5.862;2024-03-17T00:28:41;4.53;;;2.28;;
54430;SDS011;40342;52.998;5.862;2024-03-17T00:31:07;9.60;;;2.30;;
54430;SDS011;40342;52.998;5.862;2024-03-17T00:33:35;3.35;;;2.00;;
54430;SDS011;40342;52.998;5.862;2024-03-17T00:36:01;4.15;;;2.22;;
54430;SDS011;40342;52.998;5.862;2024-03-17T00:38:26;6.68;;;2.40;;
54430;SDS011;40342;52.998;5.862;2024-03-17T00:40:52;4.88;;;2.10;;
54430;SDS011;40342;52.998;5.862;2024-03-17T00:43:18;2.28;;;1.92;;
54430;SDS011;40342;52.998;5.862;2024-03-17T00:45:44;6.97;;;2.63;;
54430;SDS011;40342;52.998;5.862;2024-03-17T00:48:16;3.97;;;2.17;;
54430;SDS011;40342;52.998;5.862;2024-03-17T00:50:41;2.55;;;1.90;;
54430;SDS011;40342;52.998;5.862;2024-03-17T00:53:09;3.10;;;1.83;;
54430;SDS011;40342;52.998;5.862;2024-03-17T00:55:35;3.33;;;2.05;;
54430;SDS011;40342;52.998;5.862;2024-03-17T00:58:01;3.33;;;2.10;;
54430;SDS011;40342;52.998;5.862;2024-03-17T01:00:28;3.30;;;2.13;;
54430;SDS011;40342;52.998;5.862;2024-03-17T01:02:53;4.28;;;2.15;;
54430;SDS011;40342;52.998;5.862;2024-03-17T01:05:19;2.00;;;1.67;;
54430;SDS011;40342;52.998;5.862;2024-03-17T01:07:45;6.07;;;2.20;;
54430;SDS011;40342;52.998;5.862;2024-03-17T01:10:12;3.30;;;1.88;;
54430;SDS011;40342;52.998;5.862;2024-03-17T01:12:38;7.30;;;1.90;;
54430;SDS011;40342;52.998;5.862;2024-03-17T01:15:05;4.85;;;1.95;;
54430;SDS011;40342;52.998;5.862;2024-03-17T01:17:31;3.00;;;1.75;;
54430;SDS011;40342;52.998;5.862;2024-03-17T01:19:57;2.63;;;1.70;;
54430;SDS011;40342;52.998;5.862;2024-03-17T01:22:23;3.47;;;2.25;;
54430;SDS011;40342;52.998;5.862;2024-03-17T01:24:49;3.08;;;1.90;;
54430;SDS011;40342;52.998;5.862;2024-03-17T01:27:14;6.15;;;1.98;;
54430;SDS011;40342;52.998;5.862;2024-03-17T01:29:41;4.93;;;1.88;;
54430;SDS011;40342;52.998;5.862;2024-03-17T01:32:10;4.55;;;1.80;;
54430;SDS011;40342;52.998;5.862;2024-03-17T01:34:36;5.68;;;2.35;;
54430;SDS011;40342;52.998;5.862;2024-03-17T01:37:05;5.63;;;2.13;;
54430;SDS011;40342;52.998;5.862;2024-03-17T01:39:31;3.58;;;2.13;;
54430;SDS011;40342;52.998;5.862;2024-03-17T01:41:57;4.45;;;2.00;;
54430;SDS011;40342;52.998;5.862;2024-03-17T01:44:27;3.45;;;2.10;;
54430;SDS011;40342;52.998;5.862;2024-03-17T01:46:57;6.70;;;2.50;;
54430;SDS011;40342;52.998;5.862;2024-03-17T01:49:23;6.65;;;2.05;;
54430;SDS011;40342;52.998;5.862;2024-03-17T01:51:51;4.43;;;2.55;;
54430;SDS011;40342;52.998;5.862;2024-03-17T01:54:18;5.63;;;2.60;;
54430;SDS011;40342;52.998;5.862;2024-03-17T01:56:43;3.25;;;2.25;;
54430;SDS011;40342;52.998;5.862;2024-03-17T01:59:09;6.05;;;2.45;;
54430;SDS011;40342;52.998;5.862;2024-03-17T02:01:36;6.38;;;2.25;;
54430;SDS011;40342;52.998;5.862;2024-03-17T02:04:02;9.48;;;2.63;;
54430;SDS011;40342;52.998;5.862;2024-03-17T02:06:29;4.13;;;2.60;;
54430;SDS011;40342;52.998;5.862;2024-03-17T02:08:55;8.38;;;2.75;;
54430;SDS011;40342;52.998;5.862;2024-03-17T02:11:25;8.73;;;2.90;;
54430;SDS011;40342;52.998;5.862;2024-03-17T02:13:52;5.20;;;2.40;;
54430;SDS011;40342;52.998;5.862;2024-03-17T02:16:18;5.90;;;2.20;;
54430;SDS011;40342;52.998;5.862;2024-03-17T02:18:45;3.90;;;2.20;;
54430;SDS011;40342;52.998;5.862;2024-03-17T02:21:11;6.70;;;3.00;;
54430;SDS011;40342;52.998;5.862;2024-03-17T02:23:44;7.38;;;2.53;;
54430;SDS011;40342;52.998;5.862;2024-03-17T02:26:10;4.72;;;2.25;;
54430;SDS011;40342;52.998;5.862;2024-03-17T02:28:39;4.35;;;1.90;;
54430;SDS011;40342;52.998;5.862;2024-03-17T02:31:07;4.05;;;2.35;;
54430;SDS011;40342;52.998;5.862;2024-03-17T02:33:34;7.35;;;2.55;;
54430;SDS011;40342;52.998;5.862;2024-03-17T02:36:00;5.40;;;2.13;;
54430;SDS011;40342;52.998;5.862;2024-03-17T02:38:28;3.78;;;2.15;;
54430;SDS011;40342;52.998;5.862;2024-03-17T02:41:14;3.28;;;2.10;;
54430;SDS011;40342;52.998;5.862;2024-03-17T02:43:40;6.25;;;2.78;;
54430;SDS011;40342;52.998;5.862;2024-03-17T02:46:06;6.45;;;2.95;;
54430;SDS011;40342;52.998;5.862;2024-03-17T02:48:33;4.10;;;1.85;;
54430;SDS011;40342;52.998;5.862;2024-03-17T02:51:00;6.28;;;2.25;;
54430;SDS011;40342;52.998;5.862;2024-03-17T02:53:25;8.55;;;2.08;;
54430;SDS011;40342;52.998;5.862;2024-03-17T02:55:51;4.50;;;2.10;;
54430;SDS011;40342;52.998;5.862;2024-03-17T02:58:16;8.27;;;2.10;;
54430;SDS011;40342;52.998;5.862;2024-03-17T03:00:42;5.55;;;2.22;;
54430;SDS011;40342;52.998;5.862;2024-03-17T03:03:08;5.78;;;2.10;;
54430;SDS011;40342;52.998;5.862;2024-03-17T03:05:34;3.40;;;1.85;;
54430;SDS011;40342;52.998;5.862;2024-03-17T03:08:00;9.25;;;2.63;;
54430;SDS011;40342;52.998;5.862;2024-03-17T03:10:26;6.15;;;2.10;;
54430;SDS011;40342;52.998;5.862;2024-03-17T03:12:51;4.20;;;1.83;;
54430;SDS011;40342;52.998;5.862;2024-03-17T03:15:17;4.32;;;1.70;;
54430;SDS011;40342;52.998;5.862;2024-03-17T03:17:43;5.50;;;2.03;;
54430;SDS011;40342;52.998;5.862;2024-03-17T03:20:09;5.32;;;2.20;;
54430;SDS011;40342;52.998;5.862;2024-03-17T03:22:34;6.35;;;1.60;;
54430;SDS011;40342;52.998;5.862;2024-03-17T03:25:01;6.85;;;2.50;;
54430;SDS011;40342;52.998;5.862;2024-03-17T03:27:27;5.18;;;2.45;;
54430;SDS011;40342;52.998;5.862;2024-03-17T03:29:52;5.65;;;2.00;;
54430;SDS011;40342;52.998;5.862;2024-03-17T03:32:20;5.97;;;1.90;;
54430;SDS011;40342;52.998;5.862;2024-03-17T03:34:46;4.68;;;1.80;;
54430;SDS011;40342;52.998;5.862;2024-03-17T03:37:12;5.05;;;2.22;;
54430;SDS011;40342;52.998;5.862;2024-03-17T03:39:38;8.13;;;2.17;;
54430;SDS011;40342;52.998;5.862;2024-03-17T03:42:04;5.88;;;1.92;;
54430;SDS011;40342;52.998;5.862;2024-03-17T03:44:29;3.72;;;1.77;;
54430;SDS011;40342;52.998;5.862;2024-03-17T03:46:55;5.18;;;1.83;;
54430;SDS011;40342;52.998;5.862;2024-03-17T03:49:23;4.68;;;1.75;;
54430;SDS011;40342;52.998;5.862;2024-03-17T03:51:53;7.95;;;2.10;;
54430;SDS011;40342;52.998;5.862;2024-03-17T03:54:19;7.40;;;2.15;;
54430;SDS011;40342;52.998;5.862;2024-03-17T03:56:45;2.55;;;1.77;;
54430;SDS011;40342;52.998;5.862;2024-03-17T03:59:10;6.75;;;1.85;;
54430;SDS011;40342;52.998;5.862;2024-03-17T04:01:36;9.30;;;2.15;;
54430;SDS011;40342;52.998;5.862;2024-03-17T04:04:02;4.13;;;2.03;;
54430;SDS011;40342;52.998;5.862;2024-03-17T04:06:28;7.85;;;2.50;;
54430;SDS011;40342;52.998;5.862;2024-03-17T04:08:54;4.15;;;2.33;;
54430;SDS011;40342;52.998;5.862;2024-03-17T04:11:19;5.68;;;2.28;;
54430;SDS011;40342;52.998;5.862;2024-03-17T04:13:45;6.25;;;2.13;;
54430;SDS011;40342;52.998;5.862;2024-03-17T04:16:12;4.00;;;2.22;;
54430;SDS011;40342;52.998;5.862;2024-03-17T04:18:37;5.90;;;2.40;;
54430;SDS011;40342;52.998;5.862;2024-03-17T04:21:06;6.78;;;1.95;;
54430;SDS011;40342;52.998;5.862;2024-03-17T04:23:32;4.78;;;2.05;;
54430;SDS011;40342;52.998;5.862;2024-03-17T04:25:58;6.30;;;2.28;;
54430;SDS011;40342;52.998;5.862;2024-03-17T04:28:25;6.32;;;1.90;;
54430;SDS011;40342;52.998;5.862;2024-03-17T04:30:51;8.90;;;1.95;;
54430;SDS011;40342;52.998;5.862;2024-03-17T04:33:17;5.97;;;1.70;;
54430;SDS011;40342;52.998;5.862;2024-03-17T04:35:43;7.28;;;1.88;;
54430;SDS011;40342;52.998;5.862;2024-03-17T04:38:08;8.30;;;2.60;;
54430;SDS011;40342;52.998;5.862;2024-03-17T04:40:34;5.22;;;2.03;;
54430;SDS011;40342;52.998;5.862;2024-03-17T04:43:05;5.82;;;2.28;;
54430;SDS011;40342;52.998;5.862;2024-03-17T04:45:31;6.20;;;2.00;;
54430;SDS011;40342;52.998;5.862;2024-03-17T04:47:57;5.53;;;1.98;;
54430;SDS011;40342;52.998;5.862;2024-03-17T04:50:23;5.00;;;1.85;;
54430;SDS011;40342;52.998;5.862;2024-03-17T04:52:48;5.75;;;1.95;;
54430;SDS011;40342;52.998;5.862;2024-03-17T04:55:14;6.75;;;1.73;;
54430;SDS011;40342;52.998;5.862;2024-03-17T04:57:42;6.30;;;1.73;;
54430;SDS011;40342;52.998;5.862;2024-03-17T05:00:09;7.25;;;1.92;;
54430;SDS011;40342;52.998;5.862;2024-03-17T05:02:37;5.93;;;1.67;;
54430;SDS011;40342;52.998;5.862;2024-03-17T05:05:03;4.65;;;1.83;;
54430;SDS011;40342;52.998;5.862;2024-03-17T05:07:30;5.68;;;1.88;;
54430;SDS011;40342;52.998;5.862;2024-03-17T05:09:56;4.20;;;1.58;;
54430;SDS011;40342;52.998;5.862;2024-03-17T05:12:22;5.32;;;1.85;;
54430;SDS011;40342;52.998;5.862;2024-03-17T05:14:48;3.08;;;1.73;;
54430;SDS011;40342;52.998;5.862;2024-03-17T05:17:13;5.10;;;2.13;;
54430;SDS011;40342;52.998;5.862;2024-03-17T05:19:39;8.27;;;2.05;;
54430;SDS011;40342;52.998;5.862;2024-03-17T05:22:05;6.20;;;1.75;;
54430;SDS011;40342;52.998;5.862;2024-03-17T05:24:31;7.68;;;2.00;;
54430;SDS011;40342;52.998;5.862;2024-03-17T05:26:56;5.68;;;2.83;;
54430;SDS011;40342;52.998;5.862;2024-03-17T05:29:22;4.93;;;1.80;;
54430;SDS011;40342;52.998;5.862;2024-03-17T05:31:48;6.35;;;1.98;;
54430;SDS011;40342;52.998;5.862;2024-03-17T05:34:14;4.85;;;1.98;;
54430;SDS011;40342;52.998;5.862;2024-03-17T05:36:40;4.35;;;2.08;;
54430;SDS011;40342;52.998;5.862;2024-03-17T05:39:05;5.75;;;1.88;;
54430;SDS011;40342;52.998;5.862;2024-03-17T05:41:31;6.20;;;1.67;;
54430;SDS011;40342;52.998;5.862;2024-03-17T05:43:57;6.90;;;1.98;;
54430;SDS011;40342;52.998;5.862;2024-03-17T05:46:23;7.15;;;2.20;;
54430;SDS011;40342;52.998;5.862;2024-03-17T05:48:53;7.00;;;1.95;;
54430;SDS011;40342;52.998;5.862;2024-03-17T05:51:19;7.95;;;1.90;;
54430;SDS011;40342;52.998;5.862;2024-03-17T05:53:44;5.38;;;2.38;;
54430;SDS011;40342;52.998;5.862;2024-03-17T05:56:10;8.88;;;2.17;;
54430;SDS011;40342;52.998;5.862;2024-03-17T05:58:37;4.60;;;2.33;;
54430;SDS011;40342;52.998;5.862;2024-03-17T06:01:03;6.75;;;2.20;;
54430;SDS011;40342;52.998;5.862;2024-03-17T06:03:29;9.32;;;2.30;;
54430;SDS011;40342;52.998;5.862;2024-03-17T06:05:55;5.25;;;1.90;;
54430;SDS011;40342;52.998;5.862;2024-03-17T06:08:23;10.80;;;2.83;;
54430;SDS011;40342;52.998;5.862;2024-03-17T06:10:50;7.30;;;2.47;;
54430;SDS011;40342;52.998;5.862;2024-03-17T06:13:15;5.70;;;2.45;;
54430;SDS011;40342;52.998;5.862;2024-03-17T06:15:42;6.97;;;2.25;;
54430;SDS011;40342;52.998;5.862;2024-03-17T06:18:13;7.70;;;2.75;;
54430;SDS011;40342;52.998;5.862;2024-03-17T06:20:43;5.63;;;2.25;;
54430;SDS011;40342;52.998;5.862;2024-03-17T06:23:13;4.32;;;2.33;;
54430;SDS011;40342;52.998;5.862;2024-03-17T06:25:41;6.75;;;2.60;;
54430;SDS011;40342;52.998;5.862;2024-03-17T06:28:08;5.95;;;2.83;;
54430;SDS011;40342;52.998;5.862;2024-03-17T06:30:38;5.25;;;2.72;;
54430;SDS011;40342;52.998;5.862;2024-03-17T06:33:10;6.18;;;3.05;;
54430;SDS011;40342;52.998;5.862;2024-03-17T06:35:37;7.80;;;2.70;;
54430;SDS011;40342;52.998;5.862;2024-03-17T06:38:03;5.82;;;3.03;;
54430;SDS011;40342;52.998;5.862;2024-03-17T06:40:29;8.20;;;3.15;;
54430;SDS011;40342;52.998;5.862;2024-03-17T06:42:55;6.55;;;3.35;;
54430;SDS011;40342;52.998;5.862;2024-03-17T06:45:22;8.90;;;3.53;;
54430;SDS011;40342;52.998;5.862;2024-03-17T06:47:47;6.82;;;3.30;;
54430;SDS011;40342;52.998;5.862;2024-03-17T06:50:13;7.45;;;3.30;;
54430;SDS011;40342;52.998;5.862;2024-03-17T06:52:39;7.65;;;3.83;;
54430;SDS011;40342;52.998;5.862;2024-03-17T06:55:06;9.32;;;3.22;;
54430;SDS011;40342;52.998;5.862;2024-03-17T06:57:32;5.88;;;3.35;;
54430;SDS011;40342;52.998;5.862;2024-03-17T06:59:59;6.95;;;3.53;;
54430;SDS011;40342;52.998;5.862;2024-03-17T07:02:25;10.20;;;4.38;;
54430;SDS011;40342;52.998;5.862;2024-03-17T07:04:50;7.97;;;4.10;;
54430;SDS011;40342;52.998;5.862;2024-03-17T07:07:16;6.75;;;4.05;;
54430;SDS011;40342;52.998;5.862;2024-03-17T07:09:42;5.70;;;3.83;;
54430;SDS011;40342;52.998;5.862;2024-03-17T07:12:08;5.75;;;3.90;;
54430;SDS011;40342;52.998;5.862;2024-03-17T07:14:34;8.68;;;4.45;;
54430;SDS011;40342;52.998;5.862;2024-03-17T07:17:00;6.70;;;4.07;;
54430;SDS011;40342;52.998;5.862;2024-03-17T07:19:26;7.88;;;4.22;;
54430;SDS011;40342;52.998;5.862;2024-03-17T07:21:51;8.45;;;4.15;;
54430;SDS011;40342;52.998;5.862;2024-03-17T07:24:17;7.88;;;4.30;;
54430;SDS011;40342;52.998;5.862;2024-03-17T07:26:43;4.47;;;4.07;;
54430;SDS011;40342;52.998;5.862;2024-03-17T07:29:08;8.15;;;4.10;;
54430;SDS011;40342;52.998;5.862;2024-03-17T07:31:34;6.18;;;3.70;;
54430;SDS011;40342;52.998;5.862;2024-03-17T07:34:00;9.07;;;4.40;;
54430;SDS011;40342;52.998;5.862;2024-03-17T07:36:25;5.40;;;3.92;;
54430;SDS011;40342;52.998;5.862;2024-03-17T07:38:51;10.98;;;4.30;;
54430;SDS011;40342;52.998;5.862;2024-03-17T07:41:17;7.60;;;3.80;;
54430;SDS011;40342;52.998;5.862;2024-03-17T07:43:44;7.13;;;4.00;;
54430;SDS011;40342;52.998;5.862;2024-03-17T07:46:11;9.27;;;4.63;;
54430;SDS011;40342;52.998;5.862;2024-03-17T07:48:38;9.82;;;4.40;;
54430;SDS011;40342;52.998;5.862;2024-03-17T07:51:06;7.90;;;4.93;;
54430;SDS011;40342;52.998;5.862;2024-03-17T07:53:36;11.57;;;7.07;;
54430;SDS011;40342;52.998;5.862;2024-03-17T07:58:30;7.65;;;5.32;;
54430;SDS011;40342;52.998;5.862;2024-03-17T08:01:01;7.15;;;5.07;;
54430;SDS011;40342;52.998;5.862;2024-03-17T08:03:28;11.27;;;7.80;;
54430;SDS011;40342;52.998;5.862;2024-03-17T08:05:59;7.88;;;5.75;;
54430;SDS011;40342;52.998;5.862;2024-03-17T08:08:26;11.88;;;6.40;;
54430;SDS011;40342;52.998;5.862;2024-03-17T08:10:52;12.77;;;6.97;;
54430;SDS011;40342;52.998;5.862;2024-03-17T08:13:18;16.88;;;10.38;;
54430;SDS011;40342;52.998;5.862;2024-03-17T08:15:45;13.38;;;10.20;;
54430;SDS011;40342;52.998;5.862;2024-03-17T08:18:11;19.60;;;11.82;;
54430;SDS011;40342;52.998;5.862;2024-03-17T08:20:38;15.10;;;10.75;;
54430;SDS011;40342;52.998;5.862;2024-03-17T08:23:04;15.00;;;9.98;;
54430;SDS011;40342;52.998;5.862;2024-03-17T08:25:31;12.82;;;8.88;;
54430;SDS011;40342;52.998;5.862;2024-03-17T08:27:57;9.85;;;7.03;;
54430;SDS011;40342;52.998;5.862;2024-03-17T08:30:23;11.68;;;7.13;;
54430;SDS011;40342;52.998;5.862;2024-03-17T08:32:48;8.93;;;7.07;;
54430;SDS011;40342;52.998;5.862;2024-03-17T08:35:14;10.52;;;6.57;;
54430;SDS011;40342;52.998;5.862;2024-03-17T08:37:40;9.45;;;7.07;;
54430;SDS011;40342;52.998;5.862;2024-03-17T08:40:05;10.02;;;6.95;;
54430;SDS011;40342;52.998;5.862;2024-03-17T08:42:32;9.18;;;7.25;;
54430;SDS011;40342;52.998;5.862;2024-03-17T08:44:58;10.38;;;6.63;;
54430;SDS011;40342;52.998;5.862;2024-03-17T08:47:23;10.57;;;7.32;;
54430;SDS011;40342;52.998;5.862;2024-03-17T08:49:52;11.55;;;7.13;;
54430;SDS011;40342;52.998;5.862;2024-03-17T08:52:18;9.45;;;7.43;;
54430;SDS011;40342;52.998;5.862;2024-03-17T08:54:46;7.32;;;6.43;;
54430;SDS011;40342;52.998;5.862;2024-03-17T08:57:15;7.88;;;6.70;;
54430;SDS011;40342;52.998;5.862;2024-03-17T08:59:41;10.35;;;6.38;;
54430;SDS011;40342;52.998;5.862;2024-03-17T09:02:07;8.57;;;7.45;;
54430;SDS011;40342;52.998;5.862;2024-03-17T09:04:36;9.38;;;6.75;;
54430;SDS011;40342;52.998;5.862;2024-03-17T09:07:02;10.52;;;7.10;;
54430;SDS011;40342;52.998;5.862;2024-03-17T09:09:29;8.45;;;6.63;;
54430;SDS011;40342;52.998;5.862;2024-03-17T09:11:55;10.30;;;7.00;;
54430;SDS011;40342;52.998;5.862;2024-03-17T09:14:20;7.88;;;6.75;;
54430;SDS011;40342;52.998;5.862;2024-03-17T09:16:47;8.20;;;6.78;;
54430;SDS011;40342;52.998;5.862;2024-03-17T09:19:13;10.00;;;6.93;;
54430;SDS011;40342;52.998;5.862;2024-03-17T09:21:39;9.55;;;6.88;;
54430;SDS011;40342;52.998;5.862;2024-03-17T09:24:05;9.23;;;6.55;;
54430;SDS011;40342;52.998;5.862;2024-03-17T09:26:34;9.20;;;7.07;;
54430;SDS011;40342;52.998;5.862;2024-03-17T09:29:03;12.95;;;6.20;;
54430;SDS011;40342;52.998;5.862;2024-03-17T09:31:29;9.88;;;6.50;;
54430;SDS011;40342;52.998;5.862;2024-03-17T09:33:55;8.15;;;6.63;;
54430;SDS011;40342;52.998;5.862;2024-03-17T09:36:21;6.90;;;6.15;;
54430;SDS011;40342;52.998;5.862;2024-03-17T09:38:47;8.32;;;6.15;;
54430;SDS011;40342;52.998;5.862;2024-03-17T09:41:18;9.10;;;6.20;;
54430;SDS011;40342;52.998;5.862;2024-03-17T09:43:47;10.57;;;6.50;;
54430;SDS011;40342;52.998;5.862;2024-03-17T09:46:13;8.80;;;7.07;;
54430;SDS011;40342;52.998;5.862;2024-03-17T09:48:41;11.10;;;6.35;;
54430;SDS011;40342;52.998;5.862;2024-03-17T09:51:08;9.23;;;6.63;;
54430;SDS011;40342;52.998;5.862;2024-03-17T09:53:50;9.50;;;6.20;;
54430;SDS011;40342;52.998;5.862;2024-03-17T09:56:16;9.73;;;5.90;;
54430;SDS011;40342;52.998;5.862;2024-03-17T09:58:44;10.10;;;6.28;;
54430;SDS011;40342;52.998;5.862;2024-03-17T10:01:10;6.53;;;5.53;;
54430;SDS011;40342;52.998;5.862;2024-03-17T10:03:40;10.90;;;6.07;;
54430;SDS011;40342;52.998;5.862;2024-03-17T10:06:13;6.60;;;5.68;;
54430;SDS011;40342;52.998;5.862;2024-03-17T10:09:01;9.02;;;6.55;;
54430;SDS011;40342;52.998;5.862;2024-03-17T10:11:33;7.78;;;5.72;;
54430;SDS011;40342;52.998;5.862;2024-03-17T10:14:07;6.80;;;6.00;;
54430;SDS011;40342;52.998;5.862;2024-03-17T10:16:34;7.75;;;5.53;;
54430;SDS011;40342;52.998;5.862;2024-03-17T10:19:21;9.77;;;5.95;;
54430;SDS011;40342;52.998;5.862;2024-03-17T10:21:49;8.63;;;5.63;;
54430;SDS011;40342;52.998;5.862;2024-03-17T10:24:22;10.60;;;5.90;;
54430;SDS011;40342;52.998;5.862;2024-03-17T10:29:22;10.70;;;5.50;;
54430;SDS011;40342;52.998;5.862;2024-03-17T10:31:54;7.00;;;5.53;;
54430;SDS011;40342;52.998;5.862;2024-03-17T10:34:25;6.93;;;5.40;;
54430;SDS011;40342;52.998;5.862;2024-03-17T10:37:05;5.68;;;5.07;;
54430;SDS011;40342;52.998;5.862;2024-03-17T10:39:31;7.65;;;5.30;;
54430;SDS011;40342;52.998;5.862;2024-03-17T10:41:58;9.23;;;5.63;;
54430;SDS011;40342;52.998;5.862;2024-03-17T10:44:26;7.47;;;5.30;;
54430;SDS011;40342;52.998;5.862;2024-03-17T10:46:54;8.70;;;5.10;;
54430;SDS011;40342;52.998;5.862;2024-03-17T10:49:23;6.72;;;4.68;;
54430;SDS011;40342;52.998;5.862;2024-03-17T10:51:53;6.32;;;4.80;;
54430;SDS011;40342;52.998;5.862;2024-03-17T10:54:23;7.00;;;4.70;;
54430;SDS011;40342;52.998;5.862;2024-03-17T10:56:53;5.47;;;4.55;;
54430;SDS011;40342;52.998;5.862;2024-03-17T10:59:20;6.22;;;4.45;;
54430;SDS011;40342;52.998;5.862;2024-03-17T11:02:04;5.97;;;4.72;;
54430;SDS011;40342;52.998;5.862;2024-03-17T11:04:39;6.97;;;5.30;;
54430;SDS011;40342;52.998;5.862;2024-03-17T11:07:05;8.25;;;5.25;;
54430;SDS011;40342;52.998;5.862;2024-03-17T11:09:40;6.65;;;4.60;;
54430;SDS011;40342;52.998;5.862;2024-03-17T11:12:14;6.10;;;4.93;;
54430;SDS011;40342;52.998;5.862;2024-03-17T11:17:45;8.55;;;7.65;;
54430;SDS011;40342;52.998;5.862;2024-03-17T11:20:15;11.25;;;9.95;;
54430;SDS011;40342;52.998;5.862;2024-03-17T11:22:50;9.10;;;8.20;;
54430;SDS011;40342;52.998;5.862;2024-03-17T11:27:58;7.43;;;4.50;;
54430;SDS011;40342;52.998;5.862;2024-03-17T11:49:16;7.78;;;4.85;;
54430;SDS011;40342;52.998;5.862;2024-03-17T11:51:46;6.45;;;4.07;;
54430;SDS011;40342;52.998;5.862;2024-03-17T11:54:14;4.93;;;4.10;;
54430;SDS011;40342;52.998;5.862;2024-03-17T11:56:45;5.13;;;3.58;;
54430;SDS011;40342;52.998;5.862;2024-03-17T11:59:11;7.35;;;4.07;;
54430;SDS011;40342;52.998;5.862;2024-03-17T12:01:37;6.82;;;4.45;;
54430;SDS011;40342;52.998;5.862;2024-03-17T12:04:06;6.30;;;4.55;;
54430;SDS011;40342;52.998;5.862;2024-03-17T12:06:32;4.30;;;3.90;;
54430;SDS011;40342;52.998;5.862;2024-03-17T12:09:08;6.18;;;4.30;;
54430;SDS011;40342;52.998;5.862;2024-03-17T12:12:01;6.65;;;4.30;;
54430;SDS011;40342;52.998;5.862;2024-03-17T12:14:28;4.50;;;4.10;;
54430;SDS011;40342;52.998;5.862;2024-03-17T12:16:55;5.05;;;3.70;;
54430;SDS011;40342;52.998;5.862;2024-03-17T12:19:22;6.38;;;4.32;;
54430;SDS011;40342;52.998;5.862;2024-03-17T12:21:49;5.45;;;4.70;;
54430;SDS011;40342;52.998;5.862;2024-03-17T12:24:18;9.23;;;6.75;;
54430;SDS011;40342;52.998;5.862;2024-03-17T12:26:46;5.80;;;5.10;;
54430;SDS011;40342;52.998;5.862;2024-03-17T12:29:46;5.75;;;5.25;;
54430;SDS011;40342;52.998;5.862;2024-03-17T12:34:36;6.57;;;5.90;;
54430;SDS011;40342;52.998;5.862;2024-03-17T12:37:02;5.68;;;5.03;;
54430;SDS011;40342;52.998;5.862;2024-03-17T12:39:30;6.05;;;5.05;;
54430;SDS011;40342;52.998;5.862;2024-03-17T12:42:30;6.82;;;4.88;;
54430;SDS011;40342;52.998;5.862;2024-03-17T12:44:51;7.75;;;4.95;;
54430;SDS011;40342;52.998;5.862;2024-03-17T12:47:25;6.65;;;4.70;;
54430;SDS011;40342;52.998;5.862;2024-03-17T12:49:52;9.25;;;4.75;;
54430;SDS011;40342;52.998;5.862;2024-03-17T12:52:22;5.55;;;4.68;;
54430;SDS011;40342;52.998;5.862;2024-03-17T12:55:05;5.82;;;4.75;;
54430;SDS011;40342;52.998;5.862;2024-03-17T12:57:51;6.25;;;4.78;;
54430;SDS011;40342;52.998;5.862;2024-03-17T13:01:01;5.15;;;4.65;;
54430;SDS011;40342;52.998;5.862;2024-03-17T13:03:31;5.18;;;4.75;;
54430;SDS011;40342;52.998;5.862;2024-03-17T13:06:01;6.50;;;4.85;;
54430;SDS011;40342;52.998;5.862;2024-03-17T13:08:30;5.30;;;4.80;;
54430;SDS011;40342;52.998;5.862;2024-03-17T13:10:56;5.75;;;4.80;;
54430;SDS011;40342;52.998;5.862;2024-03-17T13:13:25;6.78;;;5.28;;
54430;SDS011;40342;52.998;5.862;2024-03-17T13:15:51;5.97;;;5.40;;
54430;SDS011;40342;52.998;5.862;2024-03-17T13:18:18;6.47;;;5.20;;
54430;SDS011;40342;52.998;5.862;2024-03-17T13:20:44;6.75;;;5.35;;
54430;SDS011;40342;52.998;5.862;2024-03-17T13:23:18;6.13;;;4.88;;
54430;SDS011;40342;52.998;5.862;2024-03-17T13:25:44;5.80;;;5.30;;
54430;SDS011;40342;52.998;5.862;2024-03-17T13:28:10;5.80;;;5.18;;
54430;SDS011;40342;52.998;5.862;2024-03-17T13:30:36;6.80;;;5.43;;
54430;SDS011;40342;52.998;5.862;2024-03-17T13:33:02;6.65;;;5.50;;
54430;SDS011;40342;52.998;5.862;2024-03-17T13:35:33;6.38;;;5.78;;
54430;SDS011;40342;52.998;5.862;2024-03-17T13:38:04;6.18;;;5.57;;
54430;SDS011;40342;52.998;5.862;2024-03-17T13:40:34;6.50;;;5.32;;
54430;SDS011;40342;52.998;5.862;2024-03-17T13:43:00;6.10;;;5.50;;
54430;SDS011;40342;52.998;5.862;2024-03-17T13:45:27;5.90;;;5.05;;
54430;SDS011;40342;52.998;5.862;2024-03-17T13:47:59;8.90;;;5.45;;
54430;SDS011;40342;52.998;5.862;2024-03-17T13:50:26;5.80;;;5.18;;
54430;SDS011;40342;52.998;5.862;2024-03-17T13:52:52;7.80;;;5.13;;
54430;SDS011;40342;52.998;5.862;2024-03-17T13:55:19;5.70;;;5.10;;
54430;SDS011;40342;52.998;5.862;2024-03-17T13:57:46;5.80;;;5.18;;
54430;SDS011;40342;52.998;5.862;2024-03-17T14:00:15;6.93;;;4.90;;
54430;SDS011;40342;52.998;5.862;2024-03-17T14:02:48;5.53;;;5.03;;
54430;SDS011;40342;52.998;5.862;2024-03-17T14:05:16;5.47;;;4.63;;
54430;SDS011;40342;52.998;5.862;2024-03-17T14:07:43;6.07;;;4.95;;
54430;SDS011;40342;52.998;5.862;2024-03-17T14:10:09;6.20;;;4.95;;
54430;SDS011;40342;52.998;5.862;2024-03-17T14:12:36;5.10;;;4.57;;
54430;SDS011;40342;52.998;5.862;2024-03-17T14:15:06;6.28;;;5.30;;
54430;SDS011;40342;52.998;5.862;2024-03-17T14:17:39;6.15;;;4.72;;
54430;SDS011;40342;52.998;5.862;2024-03-17T14:20:06;6.25;;;4.95;;
54430;SDS011;40342;52.998;5.862;2024-03-17T14:22:39;5.50;;;5.00;;
54430;SDS011;40342;52.998;5.862;2024-03-17T14:25:09;6.10;;;4.97;;
54430;SDS011;40342;52.998;5.862;2024-03-17T14:27:40;5.25;;;4.72;;
54430;SDS011;40342;52.998;5.862;2024-03-17T14:30:05;5.40;;;4.90;;
54430;SDS011;40342;52.998;5.862;2024-03-17T14:32:32;4.88;;;4.47;;
54430;SDS011;40342;52.998;5.862;2024-03-17T14:34:58;6.65;;;4.88;;
54430;SDS011;40342;52.998;5.862;2024-03-17T14:37:24;5.25;;;4.75;;
54430;SDS011;40342;52.998;5.862;2024-03-17T14:39:53;5.03;;;4.55;;
54430;SDS011;40342;52.998;5.862;2024-03-17T14:42:20;6.28;;;5.05;;
54430;SDS011;40342;52.998;5.862;2024-03-17T14:44:46;6.00;;;4.57;;
54430;SDS011;40342;52.998;5.862;2024-03-17T14:47:14;5.95;;;4.72;;
54430;SDS011;40342;52.998;5.862;2024-03-17T14:49:40;6.88;;;4.90;;
54430;SDS011;40342;52.998;5.862;2024-03-17T14:52:07;8.57;;;6.32;;
54430;SDS011;40342;52.998;5.862;2024-03-17T14:54:33;6.38;;;5.35;;
54430;SDS011;40342;52.998;5.862;2024-03-17T14:56:59;6.93;;;5.55;;
54430;SDS011;40342;52.998;5.862;2024-03-17T14:59:25;6.15;;;5.55;;
54430;SDS011;40342;52.998;5.862;2024-03-17T15:01:50;6.15;;;5.55;;
54430;SDS011;40342;52.998;5.862;2024-03-17T15:04:16;5.30;;;4.80;;
54430;SDS011;40342;52.998;5.862;2024-03-17T15:06:43;5.57;;;4.90;;
54430;SDS011;40342;52.998;5.862;2024-03-17T15:09:09;5.63;;;5.05;;
54430;SDS011;40342;52.998;5.862;2024-03-17T15:11:35;5.25;;;4.75;;
54430;SDS011;40342;52.998;5.862;2024-03-17T15:14:01;5.80;;;5.07;;
54430;SDS011;40342;52.998;5.862;2024-03-17T15:16:26;5.25;;;4.75;;
54430;SDS011;40342;52.998;5.862;2024-03-17T15:18:52;4.95;;;4.30;;
54430;SDS011;40342;52.998;5.862;2024-03-17T15:21:18;5.50;;;5.10;;